Lago Vista, Texas
Current Conditions -  °F | °C
As of 7:35 PM on Friday 21 Nov 2014 (Local Time) from KRYW Reporting Station
Thunderstorm Thunderstorm  
Wind Chill: 68°   Ceiling: 400
Heat Index: 68°   Visibility: 5mi
Dew Point: 66°   Wind: 12mph
Humidity: 93%   Direction: 140°SE
Pressure: 30.04"   Gusts: 17mph
Location:  30.4521°N, 97.9683°W
Report Text: KRYW 220135Z AUTO 14010G15KT 5SM -TSRA BKN004 OVC008 20/19 A3004 RMK AO2 LTG DSNT SW THRU N P0001 T02000188
Loading
Personal Weather Stations






























Interactive Weather Map New forecast layout! Learn more

10-Day Weather Forecast

Advertisements
Track Severe Weather on mobile